createdAt,value
2023-04-18T00:00:12.597Z,100180.16
2023-04-18T00:01:17.372Z,100187.06
2023-04-18T00:02:20.802Z,100183.53
2023-04-18T00:03:25.194Z,100184.28
2023-04-18T00:04:28.089Z,100184.38
2023-04-18T00:05:31.970Z,100181.69
2023-04-18T00:06:36.199Z,100180.81
2023-04-18T00:07:40.276Z,100179.94
2023-04-18T00:08:43.082Z,100177.38
2023-04-18T00:09:46.811Z,100182.53
2023-04-18T00:10:49.650Z,100180.75
2023-04-18T00:11:53.650Z,100185.91
2023-04-18T00:12:56.356Z,100172.91
2023-04-18T00:14:00.300Z,100173.81
2023-04-18T00:15:03.374Z,100178.06
2023-04-18T00:16:09.614Z,100178.78
2023-04-18T00:17:14.791Z,100177.03
2023-04-18T00:18:18.465Z,100182.97
2023-04-18T00:19:20.804Z,100183.88
2023-04-18T00:20:26.781Z,100175.97
2023-04-18T00:21:30.325Z,100174.94
2023-04-18T00:22:34.400Z,100181.94
2023-04-18T00:23:37.414Z,100168.75
2023-04-18T00:24:42.240Z,100181.13
2023-04-18T00:25:44.942Z,100181.94
2023-04-18T00:26:49.137Z,100177.59
2023-04-18T00:27:52.003Z,100177.59
2023-04-18T00:28:55.721Z,100168.81
2023-04-18T00:29:58.386Z,100175.03
2023-04-18T00:31:02.182Z,100174.03
2023-04-18T00:32:04.902Z,100182.75
2023-04-18T00:33:11.610Z,100175.81
2023-04-18T00:34:14.603Z,100172.28
2023-04-18T00:35:20.330Z,100172.13
2023-04-18T00:36:23.073Z,100173.97
2023-04-18T00:37:26.696Z,100177.28
2023-04-18T00:38:29.023Z,100172.06
2023-04-18T00:39:32.853Z,100171.97
2023-04-18T00:40:35.673Z,100168.50
2023-04-18T00:41:39.460Z,100170.91
2023-04-18T00:42:42.073Z,100177.91
2023-04-18T00:43:45.867Z,100180.50
2023-04-18T00:44:48.614Z,100185.59
2023-04-18T00:45:52.575Z,100182.06
2023-04-18T00:46:55.207Z,100182.94
2023-04-18T00:47:59.315Z,100177.78
2023-04-18T00:49:04.737Z,100176.81
2023-04-18T00:50:09.881Z,100181.16
2023-04-18T00:51:13.090Z,100177.63
2023-04-18T00:52:18.647Z,100174.88
2023-04-18T00:53:21.885Z,100180.03
2023-04-18T00:54:28.064Z,100164.25
2023-04-18T00:55:30.961Z,100171.34
2023-04-18T00:56:35.338Z,100174.63
2023-04-18T00:57:38.019Z,100173.69
2023-04-18T00:58:41.829Z,100169.19
2023-04-18T00:59:44.745Z,100173.59
2023-04-18T01:00:48.497Z,100175.19
2023-04-18T01:01:51.153Z,100173.50
2023-04-18T01:02:56.006Z,100166.63
2023-04-18T01:03:58.909Z,100170.88
2023-04-18T01:05:04.502Z,100168.19
2023-04-18T01:06:07.546Z,100171.75
2023-04-18T01:07:11.549Z,100139.13
2023-04-18T01:08:14.696Z,100169.91
2023-04-18T01:09:18.507Z,100175.13
2023-04-18T01:10:21.330Z,100178.59
2023-04-18T01:11:24.889Z,100168.19
2023-04-18T01:12:27.239Z,100176.03
2023-04-18T01:13:30.933Z,100165.56
2023-04-18T01:14:33.624Z,100167.34
2023-04-18T01:15:37.291Z,100171.66
2023-04-18T01:16:40.211Z,100165.56
2023-04-18T01:17:43.959Z,100164.66
2023-04-18T01:18:46.651Z,100162.66
2023-04-18T01:19:51.280Z,100173.13
2023-04-18T01:20:57.463Z,100157.34
2023-04-18T01:22:01.195Z,100160.75
2023-04-18T01:23:04.375Z,100162.50
2023-04-18T01:24:13.691Z,100162.31
2023-04-18T01:25:16.495Z,100166.69
2023-04-18T01:26:21.356Z,100166.69
2023-04-18T01:27:24.171Z,100162.31
2023-04-18T01:28:27.969Z,100164.13
2023-04-18T01:29:30.650Z,100163.22
2023-04-18T01:30:34.722Z,100156.16
2023-04-18T01:31:38.707Z,100155.44
2023-04-18T01:32:42.661Z,100160.59
2023-04-18T01:33:45.420Z,100164.84
2023-04-18T01:34:49.074Z,100154.44
2023-04-18T01:35:52.123Z,100161.38
2023-04-18T01:36:55.794Z,100163.06
2023-04-18T01:37:59.062Z,100157.00
2023-04-18T01:39:02.965Z,100156.00
2023-04-18T01:40:08.797Z,100165.63
2023-04-18T01:41:12.518Z,100160.47
2023-04-18T01:42:15.207Z,100155.16
2023-04-18T01:43:18.756Z,100156.06
2023-04-18T01:44:21.543Z,100156.94
2023-04-18T01:45:25.207Z,100156.06
2023-04-18T01:46:28.099Z,100168.94
2023-04-18T01:47:31.868Z,100162.88
2023-04-18T01:48:34.512Z,100157.00
2023-04-18T01:49:38.071Z,100155.31
2023-04-18T01:50:40.881Z,100166.53
2023-04-18T01:51:44.500Z,100160.59
2023-04-18T01:52:47.561Z,100159.75
2023-04-18T01:53:51.551Z,100159.75
2023-04-18T01:54:54.197Z,100160.81
2023-04-18T01:55:59.659Z,100160.91
2023-04-18T01:57:02.248Z,100159.19
2023-04-18T01:58:05.937Z,100165.31
2023-04-18T01:59:08.615Z,100157.50
2023-04-18T02:00:13.563Z,100156.88
2023-04-18T02:01:16.263Z,100158.63
2023-04-18T02:02:20.138Z,100160.41
2023-04-18T02:03:23.279Z,100156.31
2023-04-18T02:04:26.960Z,100164.19
2023-04-18T02:05:29.275Z,100158.31
2023-04-18T02:06:32.890Z,100159.25
2023-04-18T02:07:35.279Z,100164.56
2023-04-18T02:08:39.070Z,100159.50
2023-04-18T02:09:41.741Z,100147.91
2023-04-18T02:10:45.446Z,100162.97
2023-04-18T02:11:49.652Z,100164.91
2023-04-18T02:12:53.313Z,100166.75
2023-04-18T02:13:56.383Z,100160.53
2023-04-18T02:15:00.151Z,100160.69
2023-04-18T02:16:03.003Z,100157.28
2023-04-18T02:17:06.661Z,100159.06
2023-04-18T02:18:10.218Z,100165.91
2023-04-18T02:19:13.933Z,100163.19
2023-04-18T02:20:16.697Z,100163.28
2023-04-18T02:21:22.068Z,100162.22
2023-04-18T02:22:24.838Z,100165.69
2023-04-18T02:23:28.935Z,100157.81
2023-04-18T02:24:31.605Z,100159.50
2023-04-18T02:25:35.215Z,100161.91
2023-04-18T02:26:37.515Z,100164.41
2023-04-18T02:27:42.597Z,100157.41
2023-04-18T02:28:45.340Z,100160.00
2023-04-18T02:29:49.018Z,100155.56
2023-04-18T02:30:51.851Z,100152.00
2023-04-18T02:31:55.610Z,100155.41
2023-04-18T02:32:58.296Z,100153.63
2023-04-18T02:34:01.969Z,100155.25
2023-04-18T02:35:04.646Z,100162.97
2023-04-18T02:36:08.896Z,100163.72
2023-04-18T02:37:11.690Z,100169.59
2023-04-18T02:38:15.270Z,100169.50
2023-04-18T02:39:18.155Z,100166.84
2023-04-18T02:40:22.203Z,100171.13
2023-04-18T02:41:24.955Z,100167.81
2023-04-18T02:42:28.704Z,100157.59
2023-04-18T02:43:33.469Z,100168.03
2023-04-18T02:44:37.084Z,100163.03
2023-04-18T02:45:39.725Z,100166.69
2023-04-18T02:46:43.376Z,100168.63
2023-04-18T02:47:54.735Z,100164.47
2023-04-18T02:48:59.417Z,100161.91
2023-04-18T02:50:02.138Z,100159.50
2023-04-18T02:51:06.632Z,100158.59
2023-04-18T02:52:09.320Z,100159.66
2023-04-18T02:53:13.076Z,100163.13
2023-04-18T02:54:15.951Z,100161.44
2023-04-18T02:55:20.236Z,100161.66
2023-04-18T02:56:25.038Z,100160.03
2023-04-18T02:57:27.583Z,100162.75
2023-04-18T02:58:31.298Z,100162.94
2023-04-18T02:59:35.241Z,100163.97
2023-04-18T03:00:39.108Z,100157.28
2023-04-18T03:01:41.409Z,100161.06
2023-04-18T03:02:45.310Z,100154.28
2023-04-18T03:03:47.930Z,100148.50
2023-04-18T03:04:51.554Z,100158.22
2023-04-18T03:05:55.268Z,100159.28
2023-04-18T03:06:59.429Z,100150.69
2023-04-18T03:08:03.329Z,100155.84
2023-04-18T03:09:05.927Z,100162.94
2023-04-18T03:10:10.220Z,100162.13
2023-04-18T03:11:12.704Z,100159.53
2023-04-18T03:12:16.626Z,100157.94
2023-04-18T03:13:19.135Z,100154.38
2023-04-18T03:14:22.923Z,100165.75
2023-04-18T03:15:26.794Z,100160.69
2023-04-18T03:16:31.256Z,100161.53
2023-04-18T03:17:34.358Z,100158.22
2023-04-18T03:18:38.020Z,100166.94
2023-04-18T03:19:40.757Z,100160.97
2023-04-18T03:20:44.414Z,100155.88
2023-04-18T03:21:47.008Z,100165.38
2023-04-18T03:22:50.656Z,100157.63
2023-04-18T03:23:53.711Z,100161.03
2023-04-18T03:24:57.451Z,100145.41
2023-04-18T03:26:00.170Z,100151.63
2023-04-18T03:27:03.778Z,100153.47
2023-04-18T03:28:06.812Z,100157.00
2023-04-18T03:29:10.602Z,100152.78
2023-04-18T03:30:13.609Z,100151.09
2023-04-18T03:31:18.741Z,100153.97
2023-04-18T03:32:22.577Z,100159.28
2023-04-18T03:33:26.372Z,100154.19
2023-04-18T03:34:29.773Z,100139.28
2023-04-18T03:35:33.487Z,100152.50
2023-04-18T03:36:37.301Z,100149.91
2023-04-18T03:37:39.539Z,100153.22
2023-04-18T03:38:43.536Z,100140.13
2023-04-18T03:39:46.297Z,100160.03
2023-04-18T03:40:50.158Z,100146.88
2023-04-18T03:41:52.833Z,100140.72
2023-04-18T03:42:56.417Z,100151.97
2023-04-18T03:43:58.805Z,100150.28
2023-04-18T03:45:02.391Z,100163.09
2023-04-18T03:46:07.673Z,100152.78
2023-04-18T03:47:14.766Z,100156.31
2023-04-18T03:48:17.447Z,100152.78
2023-04-18T03:49:21.342Z,100152.78
2023-04-18T03:50:25.879Z,100151.16
2023-04-18T03:51:31.573Z,100151.31
2023-04-18T03:52:34.183Z,100148.97
2023-04-18T03:53:37.936Z,100144.81
2023-04-18T03:54:40.769Z,100151.00
2023-04-18T03:55:45.105Z,100144.22
2023-04-18T03:56:47.867Z,100145.34
2023-04-18T03:57:51.759Z,100143.03
2023-04-18T03:58:54.477Z,100152.75
2023-04-18T03:59:58.229Z,100145.16
2023-04-18T04:01:01.459Z,100142.06
2023-04-18T04:02:05.361Z,100155.19
2023-04-18T04:03:09.760Z,100150.16
2023-04-18T04:04:15.817Z,100158.25
2023-04-18T04:05:18.844Z,100154.88
2023-04-18T04:06:22.489Z,100153.09
2023-04-18T04:07:24.826Z,100150.63
2023-04-18T04:08:28.445Z,100149.16
2023-04-18T04:09:30.799Z,100149.28
2023-04-18T04:10:34.688Z,100145.97
2023-04-18T04:11:37.454Z,100145.16
2023-04-18T04:12:41.170Z,100149.56
2023-04-18T04:13:43.849Z,100150.66
2023-04-18T04:14:47.536Z,100149.97
2023-04-18T04:15:51.392Z,100145.81
2023-04-18T04:16:55.063Z,100150.25
2023-04-18T04:17:57.793Z,100157.63
2023-04-18T04:19:03.034Z,100152.69
2023-04-18T04:20:06.795Z,100151.19
2023-04-18T04:21:10.177Z,100152.28
2023-04-18T04:22:12.780Z,100149.84
2023-04-18T04:23:16.593Z,100155.25
2023-04-18T04:24:20.714Z,100152.19
2023-04-18T04:25:25.110Z,100153.28
2023-04-18T04:26:27.920Z,100142.31
2023-04-18T04:27:31.668Z,100154.00
2023-04-18T04:28:33.973Z,100146.38
2023-04-18T04:29:38.909Z,100148.47
2023-04-18T04:30:41.911Z,100120.59
2023-04-18T04:31:46.336Z,100140.25
2023-04-18T04:32:49.708Z,100143.91
2023-04-18T04:33:53.404Z,100139.84
2023-04-18T04:34:57.616Z,100136.22
2023-04-18T04:36:01.689Z,100133.13
2023-04-18T04:37:04.482Z,100133.38
2023-04-18T04:38:08.654Z,100127.19
2023-04-18T04:39:11.898Z,100125.53
2023-04-18T04:40:16.360Z,100127.22
2023-04-18T04:41:19.171Z,100134.03
2023-04-18T04:42:25.528Z,100139.19
2023-04-18T04:43:28.934Z,100140.81
2023-04-18T04:44:33.132Z,100146.75
2023-04-18T04:45:36.507Z,100144.03
2023-04-18T04:46:42.372Z,100144.25
2023-04-18T04:47:45.249Z,100139.00
2023-04-18T04:48:49.855Z,100140.63
2023-04-18T04:49:52.654Z,100143.34
2023-04-18T04:50:59.483Z,100136.53
2023-04-18T04:52:03.746Z,100130.59
2023-04-18T04:53:07.842Z,100135.22
2023-04-18T04:54:10.592Z,100145.59
2023-04-18T04:55:14.304Z,100141.56
2023-04-18T04:56:17.230Z,100139.31
2023-04-18T04:57:20.966Z,100132.72
2023-04-18T04:58:24.077Z,100137.38
2023-04-18T04:59:27.679Z,100136.06
2023-04-18T05:00:30.592Z,100136.38
2023-04-18T05:01:34.228Z,100145.44
2023-04-18T05:02:37.138Z,100133.56
2023-04-18T05:03:41.364Z,100137.97
2023-04-18T05:04:44.079Z,100145.09
2023-04-18T05:05:47.754Z,100140.06
2023-04-18T05:06:53.227Z,100140.78
2023-04-18T05:07:55.851Z,100135.78
2023-04-18T05:09:01.263Z,100135.66
2023-04-18T05:10:04.503Z,100138.41
2023-04-18T05:11:08.434Z,100134.72
2023-04-18T05:12:10.695Z,100141.78
2023-04-18T05:13:14.375Z,100136.66
2023-04-18T05:14:18.049Z,100138.53
2023-04-18T05:15:21.714Z,100144.09
2023-04-18T05:16:24.314Z,100142.66
2023-04-18T05:17:28.079Z,100144.81
2023-04-18T05:18:30.418Z,100142.53
2023-04-18T05:19:34.608Z,100138.38
2023-04-18T05:20:37.249Z,100136.66
2023-04-18T05:21:41.123Z,100147.47
2023-04-18T05:22:45.385Z,100151.00
2023-04-18T05:23:52.691Z,100143.25
2023-04-18T05:24:55.622Z,100113.44
2023-04-18T05:25:59.241Z,100151.25
2023-04-18T05:27:02.212Z,100147.03
2023-04-18T05:28:06.005Z,100145.41
2023-04-18T05:29:09.759Z,100143.91
2023-04-18T05:30:12.733Z,100143.22
2023-04-18T05:31:16.499Z,100141.66
2023-04-18T05:32:18.824Z,100146.19
2023-04-18T05:33:22.021Z,100136.78
2023-04-18T05:34:24.651Z,100145.63
2023-04-18T05:35:28.501Z,100147.50
2023-04-18T05:36:32.064Z,100138.16
2023-04-18T05:37:35.479Z,100149.63
2023-04-18T05:38:39.473Z,100153.28
2023-04-18T05:39:43.657Z,100130.56
2023-04-18T05:40:46.278Z,100148.41
2023-04-18T05:41:50.084Z,100119.31
2023-04-18T05:42:52.207Z,100150.31
2023-04-18T05:44:04.895Z,100145.09
2023-04-18T05:45:10.398Z,100153.78
2023-04-18T05:46:13.168Z,100151.22
2023-04-18T05:47:17.837Z,100146.19
2023-04-18T05:48:25.936Z,100151.47
2023-04-18T05:49:31.324Z,100133.72
2023-04-18T05:50:36.042Z,100146.91
2023-04-18T05:51:40.118Z,100151.25
2023-04-18T05:52:45.257Z,100153.81
2023-04-18T05:53:55.455Z,100140.72
2023-04-18T05:54:59.221Z,100156.59
2023-04-18T05:56:01.928Z,100156.44
2023-04-18T05:57:05.751Z,100155.50
2023-04-18T05:58:08.333Z,100147.69
2023-04-18T05:59:12.253Z,100152.84
2023-04-18T06:00:17.412Z,100144.03
2023-04-18T06:01:21.618Z,100132.56
2023-04-18T06:02:25.090Z,100151.88
2023-04-18T06:03:29.002Z,100147.50
2023-04-18T06:04:32.013Z,100155.97
2023-04-18T06:05:36.093Z,100149.00
2023-04-18T06:06:40.277Z,100141.97
2023-04-18T06:07:43.583Z,100146.97
2023-04-18T06:08:47.270Z,100143.59
2023-04-18T06:09:53.505Z,100141.88
2023-04-18T06:10:57.172Z,100148.00
2023-04-18T06:12:00.160Z,100141.84
2023-04-18T06:13:04.289Z,100138.53
2023-04-18T06:14:07.952Z,100147.38
2023-04-18T06:15:12.883Z,100138.78
2023-04-18T06:16:15.832Z,100142.34
2023-04-18T06:17:19.580Z,100158.13
2023-04-18T06:18:22.373Z,100146.25
2023-04-18T06:19:25.993Z,100147.28
2023-04-18T06:20:28.358Z,100143.91
2023-04-18T06:21:31.799Z,100143.22
2023-04-18T06:22:34.396Z,100140.78
2023-04-18T06:23:38.775Z,100147.09
2023-04-18T06:24:41.469Z,100151.69
2023-04-18T06:25:46.901Z,100148.38
2023-04-18T06:26:49.561Z,100151.19
2023-04-18T06:27:53.467Z,100154.94
2023-04-18T06:28:57.102Z,100150.88
2023-04-18T06:30:00.872Z,100153.75
2023-04-18T06:31:03.717Z,100149.59
2023-04-18T06:32:07.984Z,100154.16
2023-04-18T06:33:11.912Z,100155.22
2023-04-18T06:34:16.259Z,100151.91
2023-04-18T06:35:20.130Z,100153.81
2023-04-18T06:36:22.839Z,100150.63
2023-04-18T06:37:26.599Z,100153.47
2023-04-18T06:38:30.399Z,100154.41
2023-04-18T06:39:33.117Z,100161.53
2023-04-18T06:40:36.906Z,100143.50
2023-04-18T06:41:40.580Z,100148.97
2023-04-18T06:42:44.580Z,100147.44
2023-04-18T06:44:02.151Z,100148.47
2023-04-18T06:45:08.219Z,100148.66
2023-04-18T06:46:10.929Z,100151.31
2023-04-18T06:47:14.728Z,100151.41
2023-04-18T06:48:18.636Z,100154.19
2023-04-18T06:49:26.097Z,100155.25
2023-04-18T06:50:30.836Z,100150.97
2023-04-18T06:51:34.504Z,100152.88
2023-04-18T06:52:40.894Z,100145.84
2023-04-18T06:53:46.052Z,100150.25
2023-04-18T06:54:48.829Z,100152.91
2023-04-18T06:55:52.607Z,100148.63
2023-04-18T06:56:58.086Z,100157.41
2023-04-18T06:58:00.961Z,100135.53
2023-04-18T06:59:04.682Z,100157.63
2023-04-18T07:00:09.049Z,100162.16
2023-04-18T07:01:11.754Z,100158.81
2023-04-18T07:02:15.763Z,100165.09
2023-04-18T07:03:18.741Z,100159.91
2023-04-18T07:04:22.684Z,100159.16
2023-04-18T07:05:26.537Z,100160.91
2023-04-18T07:06:29.356Z,100159.28
2023-04-18T07:07:33.249Z,100161.16
2023-04-18T07:08:36.207Z,100155.09
2023-04-18T07:09:39.731Z,100166.63
2023-04-18T07:10:43.151Z,100163.25
2023-04-18T07:11:45.853Z,100156.34
2023-04-18T07:12:51.160Z,100158.13
2023-04-18T07:13:53.907Z,100161.75
2023-04-18T07:14:57.630Z,100157.34
2023-04-18T07:16:01.645Z,100165.25
2023-04-18T07:17:06.365Z,100161.75
2023-04-18T07:18:09.494Z,100167.97
2023-04-18T07:19:13.157Z,100159.28
2023-04-18T07:20:17.045Z,100148.88
2023-04-18T07:21:20.903Z,100143.66
2023-04-18T07:22:24.786Z,100145.41
2023-04-18T07:23:27.306Z,100156.72
2023-04-18T07:24:31.508Z,100153.34
2023-04-18T07:25:35.335Z,100151.75
2023-04-18T07:26:39.768Z,100157.94
2023-04-18T07:27:42.364Z,100135.19
2023-04-18T07:28:47.722Z,100152.00
2023-04-18T07:29:51.416Z,100157.38
2023-04-18T07:30:55.621Z,100151.09
2023-04-18T07:31:59.425Z,100154.69
2023-04-18T07:33:03.403Z,100159.09
2023-04-18T07:34:07.219Z,100146.91
2023-04-18T07:35:12.052Z,100151.28
2023-04-18T07:36:14.647Z,100140.03
2023-04-18T07:37:19.211Z,100147.16
2023-04-18T07:38:21.892Z,100144.59
2023-04-18T07:39:25.850Z,100151.69
2023-04-18T07:40:29.492Z,100149.25
2023-04-18T07:41:33.565Z,100144.19
2023-04-18T07:42:36.116Z,100152.88
2023-04-18T07:43:40.815Z,100148.66
2023-04-18T07:44:44.929Z,100146.00
2023-04-18T07:45:48.756Z,100144.38
2023-04-18T07:46:52.393Z,100141.91
2023-04-18T07:47:56.995Z,100152.28
2023-04-18T07:49:02.504Z,100146.19
2023-04-18T07:50:06.253Z,100157.69
2023-04-18T07:51:09.919Z,100144.63
2023-04-18T07:52:13.730Z,100145.47
2023-04-18T07:53:16.342Z,100149.03
2023-04-18T07:54:20.277Z,100146.53
2023-04-18T07:55:24.033Z,100155.13
2023-04-18T07:56:27.840Z,100149.84
2023-04-18T07:57:30.379Z,100149.81
2023-04-18T07:58:36.329Z,100149.81
2023-04-18T07:59:40.748Z,100148.81
2023-04-18T08:00:45.863Z,100155.72
2023-04-18T08:01:51.010Z,100153.84
2023-04-18T08:02:54.822Z,100145.22
2023-04-18T08:04:02.063Z,100149.59
2023-04-18T08:05:06.933Z,100150.19
2023-04-18T08:06:10.053Z,100141.56
2023-04-18T08:07:14.142Z,100152.06
2023-04-18T08:08:18.562Z,100151.19
2023-04-18T08:09:22.013Z,100142.50
2023-04-18T08:10:25.873Z,100137.38
2023-04-18T08:11:28.537Z,100141.72
2023-04-18T08:12:32.228Z,100141.63
2023-04-18T08:13:35.294Z,100140.91
2023-04-18T08:14:38.935Z,100129.53
2023-04-18T08:15:43.030Z,100140.97
2023-04-18T08:16:48.326Z,100138.41
2023-04-18T08:17:51.747Z,100131.50
2023-04-18T08:18:55.442Z,100141.22
2023-04-18T08:19:58.419Z,100136.06
2023-04-18T08:21:02.302Z,100127.41
2023-04-18T08:22:12.496Z,100126.66
2023-04-18T08:23:16.325Z,100124.88
2023-04-18T08:24:20.179Z,100122.34
2023-04-18T08:25:23.936Z,100134.63
2023-04-18T08:26:27.904Z,100130.28
2023-04-18T08:27:31.611Z,100133.84
2023-04-18T08:28:35.475Z,100128.63
2023-04-18T08:29:39.220Z,100125.13
2023-04-18T08:30:42.637Z,100130.44
2023-04-18T08:31:48.080Z,100130.50
2023-04-18T08:32:51.101Z,100134.00
2023-04-18T08:33:54.717Z,100127.72
2023-04-18T08:34:58.551Z,100125.13
2023-04-18T08:36:01.194Z,100124.25
2023-04-18T08:37:04.996Z,100137.41
2023-04-18T08:38:09.030Z,100130.41
2023-04-18T08:39:12.061Z,100132.06
2023-04-18T08:40:15.982Z,100130.28
2023-04-18T08:41:23.527Z,100126.81
2023-04-18T08:42:27.888Z,100125.09
2023-04-18T08:43:31.539Z,100128.50
2023-04-18T08:44:35.464Z,100128.47
2023-04-18T08:45:38.755Z,100137.16
2023-04-18T08:46:42.672Z,100127.59
2023-04-18T08:47:48.084Z,100131.84
2023-04-18T08:48:53.225Z,100130.00
2023-04-18T08:49:56.056Z,100130.03
2023-04-18T08:51:02.425Z,100131.72
2023-04-18T08:52:11.420Z,100125.59
2023-04-18T08:53:18.101Z,100124.66
2023-04-18T08:54:22.693Z,100122.75
2023-04-18T08:55:26.565Z,100123.53
2023-04-18T08:56:29.258Z,100128.69
2023-04-18T08:57:33.701Z,100093.56
2023-04-18T08:58:37.523Z,100130.34
2023-04-18T08:59:43.210Z,100133.88
2023-04-18T09:00:51.944Z,100122.53
2023-04-18T09:01:57.244Z,100141.47
2023-04-18T09:03:04.153Z,100137.84
2023-04-18T09:04:08.240Z,100143.03
2023-04-18T09:05:15.623Z,100137.81
2023-04-18T09:06:19.444Z,100143.88
2023-04-18T09:07:31.489Z,100131.66
2023-04-18T09:08:35.624Z,100135.03
2023-04-18T09:09:48.500Z,100128.06
2023-04-18T09:10:52.916Z,100133.50
2023-04-18T09:12:08.699Z,100134.56
2023-04-18T09:13:12.700Z,100134.59
2023-04-18T09:14:24.882Z,100147.56
2023-04-18T09:15:31.477Z,100149.09
2023-04-18T09:16:48.321Z,100150.69
2023-04-18T09:17:54.121Z,100147.16
2023-04-18T09:19:14.000Z,100137.53
2023-04-18T09:20:35.183Z,100135.69
2023-04-18T09:21:40.555Z,100135.69
2023-04-18T09:22:50.748Z,100133.13
2023-04-18T09:24:17.788Z,100131.34
2023-04-18T09:25:29.618Z,100135.06
2023-04-18T09:26:36.649Z,100131.50
2023-04-18T09:27:40.534Z,100135.84
2023-04-18T09:28:54.729Z,100124.63
2023-04-18T09:29:58.848Z,100123.72
2023-04-18T09:31:12.289Z,100114.31
2023-04-18T09:32:25.588Z,100120.63
2023-04-18T09:33:32.734Z,100132.88
2023-04-18T09:34:42.833Z,100120.84
2023-04-18T09:35:47.426Z,100133.13
2023-04-18T09:37:08.059Z,100137.38
2023-04-18T09:38:11.820Z,100136.53
2023-04-18T09:39:29.903Z,100136.44
2023-04-18T09:40:34.422Z,100135.56
2023-04-18T09:41:37.197Z,100148.63
2023-04-18T09:42:41.280Z,100137.28
2023-04-18T09:43:47.511Z,100120.69
2023-04-18T09:45:03.906Z,100141.75
2023-04-18T09:46:11.449Z,100132.03
2023-04-18T09:47:16.758Z,100134.66
2023-04-18T09:48:20.432Z,100133.66
2023-04-18T09:49:23.049Z,100139.72
2023-04-18T09:50:31.528Z,100118.81
2023-04-18T09:51:35.280Z,100132.88
2023-04-18T09:52:39.290Z,100129.50
2023-04-18T09:54:04.953Z,100104.09
2023-04-18T09:55:11.545Z,100112.00
2023-04-18T09:56:21.508Z,100104.91
2023-04-18T09:57:27.959Z,100130.50
2023-04-18T09:58:34.353Z,100124.34
2023-04-18T09:59:44.947Z,100101.59
2023-04-18T10:00:49.273Z,100125.88
2023-04-18T10:01:53.888Z,100127.69
2023-04-18T10:03:00.246Z,100119.69
2023-04-18T10:04:12.373Z,100129.38
2023-04-18T10:05:21.225Z,100107.50
2023-04-18T10:06:30.487Z,100113.69
2023-04-18T10:07:37.815Z,100115.78
2023-04-18T10:08:42.239Z,100116.78
2023-04-18T10:09:47.384Z,100103.94
2023-04-18T10:10:51.601Z,100108.47
2023-04-18T10:11:56.192Z,100136.63
2023-04-18T10:13:04.087Z,100093.63
2023-04-18T10:14:10.366Z,100125.22
2023-04-18T10:15:15.947Z,100120.00
2023-04-18T10:16:21.162Z,100124.28
2023-04-18T10:17:24.586Z,100123.44
2023-04-18T10:18:28.422Z,100121.59
2023-04-18T10:19:31.122Z,100129.31
2023-04-18T10:20:36.303Z,100126.69
2023-04-18T10:21:51.878Z,100127.53
2023-04-18T10:22:57.188Z,100137.16
2023-04-18T10:24:02.438Z,100128.38
2023-04-18T10:25:07.143Z,100136.25
2023-04-18T10:26:11.643Z,100133.69
2023-04-18T10:27:14.274Z,100134.38
2023-04-18T10:28:19.314Z,100135.38
2023-04-18T10:29:50.568Z,100130.28
2023-04-18T10:31:03.966Z,100134.63
2023-04-18T10:32:07.011Z,100133.78
2023-04-18T10:33:30.502Z,100134.72
2023-04-18T10:34:38.863Z,100138.34
2023-04-18T10:35:57.076Z,100137.47
2023-04-18T10:37:08.892Z,100133.09
2023-04-18T10:38:18.670Z,100141.97
2023-04-18T10:39:25.712Z,100144.59
2023-04-18T10:40:34.235Z,100139.34
2023-04-18T10:41:51.104Z,100142.78
2023-04-18T10:43:00.127Z,100137.41
2023-04-18T10:44:18.639Z,100132.25
2023-04-18T10:45:24.092Z,100145.50
2023-04-18T10:46:32.338Z,100135.88
2023-04-18T10:47:37.291Z,100132.09
2023-04-18T10:48:40.254Z,100134.91
2023-04-18T10:49:56.308Z,100132.41
2023-04-18T10:51:18.889Z,100129.94
2023-04-18T10:52:23.053Z,100126.53
2023-04-18T10:53:27.096Z,100132.75
2023-04-18T10:54:36.228Z,100131.91
2023-04-18T10:55:46.040Z,100146.75
2023-04-18T10:56:58.365Z,100144.94
2023-04-18T10:58:02.764Z,100150.13
2023-04-18T10:59:07.981Z,100145.69
2023-04-18T11:00:14.279Z,100111.34
2023-04-18T11:01:31.728Z,100127.94
2023-04-18T11:02:35.659Z,100126.38
2023-04-18T11:03:41.961Z,100128.09
2023-04-18T11:04:50.279Z,100104.34
2023-04-18T11:06:03.392Z,100129.91
2023-04-18T11:07:07.899Z,100122.00
2023-04-18T11:08:25.810Z,100119.59
2023-04-18T11:09:28.556Z,100131.97
2023-04-18T11:10:32.284Z,100130.16
2023-04-18T11:11:35.208Z,100119.81
2023-04-18T11:12:40.074Z,100131.97
2023-04-18T11:14:04.020Z,100134.53
2023-04-18T11:15:12.875Z,100121.34
2023-04-18T11:16:29.085Z,100131.75
2023-04-18T11:17:36.237Z,100128.16
2023-04-18T11:18:42.749Z,100089.47
2023-04-18T11:19:47.520Z,100111.34
2023-04-18T11:20:53.931Z,100105.25
2023-04-18T11:22:05.537Z,100075.56
2023-04-18T11:23:18.465Z,100125.28
2023-04-18T11:24:25.885Z,100108.53
2023-04-18T11:25:32.238Z,100113.78
2023-04-18T11:26:51.790Z,100112.13
2023-04-18T11:27:56.924Z,100117.44
2023-04-18T11:29:04.882Z,100113.09
2023-04-18T11:30:15.333Z,100128.84
2023-04-18T11:31:24.196Z,100119.72
2023-04-18T11:32:27.217Z,100130.44
2023-04-18T11:33:31.553Z,100127.88
2023-04-18T11:34:34.507Z,100118.34
2023-04-18T11:35:42.043Z,100114.94
2023-04-18T11:36:48.784Z,100115.78
2023-04-18T11:37:52.565Z,100113.22
2023-04-18T11:38:57.801Z,100111.59
2023-04-18T11:40:05.253Z,100113.41
2023-04-18T11:41:14.113Z,100112.59
2023-04-18T11:42:17.856Z,100115.06
2023-04-18T11:43:23.600Z,100104.63
2023-04-18T11:44:27.959Z,100105.59
2023-04-18T11:45:31.961Z,100117.72
2023-04-18T11:46:39.022Z,100109.00
2023-04-18T11:47:44.322Z,100107.25
2023-04-18T11:48:50.392Z,100106.50
2023-04-18T11:50:01.133Z,100110.78
2023-04-18T11:51:04.853Z,100100.38
2023-04-18T11:52:13.024Z,100109.13
2023-04-18T11:53:17.259Z,100116.06
2023-04-18T11:54:41.424Z,100102.19
2023-04-18T11:55:56.216Z,100103.06
2023-04-18T11:57:03.519Z,100106.63
2023-04-18T11:58:07.687Z,100082.03
2023-04-18T11:59:10.766Z,100115.34
2023-04-18T12:00:19.463Z,100085.44
2023-04-18T12:01:24.021Z,100112.63
2023-04-18T12:02:29.522Z,100115.31
2023-04-18T12:03:34.718Z,100087.34
2023-04-18T12:04:54.437Z,100108.44
2023-04-18T12:06:02.792Z,100088.25
2023-04-18T12:07:05.970Z,100113.75
2023-04-18T12:08:11.631Z,100112.78
2023-04-18T12:09:15.816Z,100106.66
2023-04-18T12:10:31.180Z,100116.31
2023-04-18T12:11:35.692Z,100114.44
2023-04-18T12:12:39.561Z,100117.00
2023-04-18T12:13:42.323Z,100101.28
2023-04-18T12:14:47.805Z,100097.94
2023-04-18T12:15:54.570Z,100105.03
2023-04-18T12:16:57.553Z,100107.63
2023-04-18T12:18:02.937Z,100104.97
2023-04-18T12:19:06.799Z,100110.91
2023-04-18T12:20:14.209Z,100089.63
2023-04-18T12:21:18.984Z,100119.34